sensor_id;sensor_type;location;lat;lon;timestamp;temperature;humidity
148;DHT22;142;50.652;12.216;2023-04-24T00:00:30;13.50;23.20
148;DHT22;142;50.652;12.216;2023-04-24T00:02:58;13.50;23.30
148;DHT22;142;50.652;12.216;2023-04-24T00:05:25;13.50;23.50
148;DHT22;142;50.652;12.216;2023-04-24T00:07:53;13.50;23.40
148;DHT22;142;50.652;12.216;2023-04-24T00:10:21;13.50;23.30
148;DHT22;142;50.652;12.216;2023-04-24T00:12:50;13.40;23.40
148;DHT22;142;50.652;12.216;2023-04-24T00:15:17;13.40;23.40
148;DHT22;142;50.652;12.216;2023-04-24T00:17:44;13.40;23.30
148;DHT22;142;50.652;12.216;2023-04-24T00:20:11;13.50;23.60
148;DHT22;142;50.652;12.216;2023-04-24T00:22:40;13.50;23.50
148;DHT22;142;50.652;12.216;2023-04-24T00:25:08;13.50;23.60
148;DHT22;142;50.652;12.216;2023-04-24T00:27:35;13.50;23.70
148;DHT22;142;50.652;12.216;2023-04-24T00:30:06;13.50;23.40
148;DHT22;142;50.652;12.216;2023-04-24T00:32:33;13.50;23.50
148;DHT22;142;50.652;12.216;2023-04-24T00:35:00;13.50;23.50
148;DHT22;142;50.652;12.216;2023-04-24T00:37:27;13.50;23.60
148;DHT22;142;50.652;12.216;2023-04-24T00:39:54;13.50;23.50
148;DHT22;142;50.652;12.216;2023-04-24T00:42:21;13.50;23.40
148;DHT22;142;50.652;12.216;2023-04-24T00:44:48;13.40;23.40
148;DHT22;142;50.652;12.216;2023-04-24T00:47:18;13.30;23.40
148;DHT22;142;50.652;12.216;2023-04-24T00:49:45;13.30;23.50
148;DHT22;142;50.652;12.216;2023-04-24T00:52:13;13.30;23.70
148;DHT22;142;50.652;12.216;2023-04-24T00:54:43;13.30;23.80
148;DHT22;142;50.652;12.216;2023-04-24T00:57:10;13.30;23.90
148;DHT22;142;50.652;12.216;2023-04-24T00:59:37;13.30;23.80
148;DHT22;142;50.652;12.216;2023-04-24T01:02:07;13.40;23.70
148;DHT22;142;50.652;12.216;2023-04-24T01:04:36;13.30;23.70
148;DHT22;142;50.652;12.216;2023-04-24T01:07:03;13.30;23.50
148;DHT22;142;50.652;12.216;2023-04-24T01:09:35;13.20;23.50
148;DHT22;142;50.652;12.216;2023-04-24T01:12:03;13.20;23.60
148;DHT22;142;50.652;12.216;2023-04-24T01:14:31;13.20;23.60
148;DHT22;142;50.652;12.216;2023-04-24T01:16:58;13.20;23.70
148;DHT22;142;50.652;12.216;2023-04-24T01:19:26;13.20;23.70
148;DHT22;142;50.652;12.216;2023-04-24T01:21:58;13.20;23.70
148;DHT22;142;50.652;12.216;2023-04-24T01:24:30;13.20;23.60
148;DHT22;142;50.652;12.216;2023-04-24T01:26:57;13.20;23.50
148;DHT22;142;50.652;12.216;2023-04-24T01:29:24;13.20;23.70
148;DHT22;142;50.652;12.216;2023-04-24T01:31:52;13.20;23.70
148;DHT22;142;50.652;12.216;2023-04-24T01:34:19;13.20;23.70
148;DHT22;142;50.652;12.216;2023-04-24T01:36:46;13.20;23.50
148;DHT22;142;50.652;12.216;2023-04-24T01:39:14;13.10;23.50
148;DHT22;142;50.652;12.216;2023-04-24T01:41:43;13.00;23.20
148;DHT22;142;50.652;12.216;2023-04-24T01:44:10;13.00;23.40
148;DHT22;142;50.652;12.216;2023-04-24T01:46:38;13.00;23.60
148;DHT22;142;50.652;12.216;2023-04-24T01:49:05;13.00;23.60
148;DHT22;142;50.652;12.216;2023-04-24T01:51:32;13.00;23.50
148;DHT22;142;50.652;12.216;2023-04-24T01:54:00;13.00;23.60
148;DHT22;142;50.652;12.216;2023-04-24T01:56:29;13.00;23.60
148;DHT22;142;50.652;12.216;2023-04-24T01:58:58;13.00;23.40
148;DHT22;142;50.652;12.216;2023-04-24T02:01:26;13.00;23.20
148;DHT22;142;50.652;12.216;2023-04-24T02:03:53;12.90;23.30
148;DHT22;142;50.652;12.216;2023-04-24T02:06:20;12.90;23.30
148;DHT22;142;50.652;12.216;2023-04-24T02:08:47;12.90;23.50
148;DHT22;142;50.652;12.216;2023-04-24T02:11:15;12.90;23.70
148;DHT22;142;50.652;12.216;2023-04-24T02:13:42;12.90;23.70
148;DHT22;142;50.652;12.216;2023-04-24T02:16:11;12.90;23.70
148;DHT22;142;50.652;12.216;2023-04-24T02:18:38;12.90;23.60
148;DHT22;142;50.652;12.216;2023-04-24T02:21:05;12.90;23.50
148;DHT22;142;50.652;12.216;2023-04-24T02:23:33;12.90;23.50
148;DHT22;142;50.652;12.216;2023-04-24T02:26:00;12.90;23.20
148;DHT22;142;50.652;12.216;2023-04-24T02:28:28;12.80;23.30
148;DHT22;142;50.652;12.216;2023-04-24T02:30:55;12.80;23.30
148;DHT22;142;50.652;12.216;2023-04-24T02:33:24;12.80;23.30
148;DHT22;142;50.652;12.216;2023-04-24T02:35:51;12.80;23.30
148;DHT22;142;50.652;12.216;2023-04-24T02:38:18;12.80;23.30
148;DHT22;142;50.652;12.216;2023-04-24T02:40:45;12.70;23.20
148;DHT22;142;50.652;12.216;2023-04-24T02:43:13;12.80;23.30
148;DHT22;142;50.652;12.216;2023-04-24T02:45:40;12.70;23.30
148;DHT22;142;50.652;12.216;2023-04-24T02:48:07;12.70;23.40
148;DHT22;142;50.652;12.216;2023-04-24T02:50:35;12.70;23.20
148;DHT22;142;50.652;12.216;2023-04-24T02:53:03;12.70;23.50
148;DHT22;142;50.652;12.216;2023-04-24T02:55:30;12.70;23.40
148;DHT22;142;50.652;12.216;2023-04-24T02:57:57;12.70;23.50
148;DHT22;142;50.652;12.216;2023-04-24T03:00:25;12.70;23.40
148;DHT22;142;50.652;12.216;2023-04-24T03:02:52;12.70;23.50
148;DHT22;142;50.652;12.216;2023-04-24T03:05:20;12.60;23.30
148;DHT22;142;50.652;12.216;2023-04-24T03:07:49;12.60;23.40
148;DHT22;142;50.652;12.216;2023-04-24T03:10:18;12.60;23.30
148;DHT22;142;50.652;12.216;2023-04-24T03:12:45;12.60;23.20
148;DHT22;142;50.652;12.216;2023-04-24T03:15:13;12.60;23.20
148;DHT22;142;50.652;12.216;2023-04-24T03:17:40;12.60;23.10
148;DHT22;142;50.652;12.216;2023-04-24T03:20:08;12.60;23.30
148;DHT22;142;50.652;12.216;2023-04-24T03:22:38;12.60;23.30
148;DHT22;142;50.652;12.216;2023-04-24T03:25:08;12.60;23.40
148;DHT22;142;50.652;12.216;2023-04-24T03:27:35;12.50;23.30
148;DHT22;142;50.652;12.216;2023-04-24T03:30:03;12.50;23.20
148;DHT22;142;50.652;12.216;2023-04-24T03:32:30;12.40;23.30
148;DHT22;142;50.652;12.216;2023-04-24T03:34:57;12.40;23.50
148;DHT22;142;50.652;12.216;2023-04-24T03:37:25;12.40;23.50
148;DHT22;142;50.652;12.216;2023-04-24T03:39:52;12.30;23.40
148;DHT22;142;50.652;12.216;2023-04-24T03:42:21;12.30;23.70
148;DHT22;142;50.652;12.216;2023-04-24T03:44:48;12.40;23.90
148;DHT22;142;50.652;12.216;2023-04-24T03:47:15;12.40;23.90
148;DHT22;142;50.652;12.216;2023-04-24T03:49:42;12.40;23.90
148;DHT22;142;50.652;12.216;2023-04-24T03:52:10;12.40;23.90
148;DHT22;142;50.652;12.216;2023-04-24T03:54:37;12.30;23.70
148;DHT22;142;50.652;12.216;2023-04-24T03:57:04;12.30;23.90
148;DHT22;142;50.652;12.216;2023-04-24T03:59:33;12.30;24.00
148;DHT22;142;50.652;12.216;2023-04-24T04:02:00;12.40;24.20
148;DHT22;142;50.652;12.216;2023-04-24T04:04:27;12.40;24.10
148;DHT22;142;50.652;12.216;2023-04-24T04:06:54;12.40;24.10
148;DHT22;142;50.652;12.216;2023-04-24T04:09:21;12.40;23.90
148;DHT22;142;50.652;12.216;2023-04-24T04:11:48;12.40;23.80
148;DHT22;142;50.652;12.216;2023-04-24T04:14:15;12.40;23.60
148;DHT22;142;50.652;12.216;2023-04-24T04:16:44;12.40;23.50
148;DHT22;142;50.652;12.216;2023-04-24T04:19:11;12.40;23.10
148;DHT22;142;50.652;12.216;2023-04-24T04:21:38;12.40;23.40
148;DHT22;142;50.652;12.216;2023-04-24T04:24:05;12.40;23.50
148;DHT22;142;50.652;12.216;2023-04-24T04:26:33;12.50;23.30
148;DHT22;142;50.652;12.216;2023-04-24T04:29:01;12.50;23.50
148;DHT22;142;50.652;12.216;2023-04-24T04:31:28;12.50;23.40
148;DHT22;142;50.652;12.216;2023-04-24T04:33:57;12.50;23.40
148;DHT22;142;50.652;12.216;2023-04-24T04:36:24;12.50;23.40
148;DHT22;142;50.652;12.216;2023-04-24T04:38:51;12.50;23.40
148;DHT22;142;50.652;12.216;2023-04-24T04:41:20;12.40;23.00
148;DHT22;142;50.652;12.216;2023-04-24T04:43:47;12.40;23.40
148;DHT22;142;50.652;12.216;2023-04-24T04:46:15;12.50;23.40
148;DHT22;142;50.652;12.216;2023-04-24T04:48:43;12.50;23.10
148;DHT22;142;50.652;12.216;2023-04-24T04:51:11;12.50;23.00
148;DHT22;142;50.652;12.216;2023-04-24T04:53:38;12.50;23.10
148;DHT22;142;50.652;12.216;2023-04-24T04:56:05;12.60;23.20
148;DHT22;142;50.652;12.216;2023-04-24T04:58:33;12.60;22.90
148;DHT22;142;50.652;12.216;2023-04-24T05:01:00;12.70;22.60
148;DHT22;142;50.652;12.216;2023-04-24T05:03:28;12.70;22.40
148;DHT22;142;50.652;12.216;2023-04-24T05:05:55;12.70;22.10
148;DHT22;142;50.652;12.216;2023-04-24T05:08:24;12.80;22.20
148;DHT22;142;50.652;12.216;2023-04-24T05:10:51;12.90;22.10
148;DHT22;142;50.652;12.216;2023-04-24T05:13:18;12.90;22.00
148;DHT22;142;50.652;12.216;2023-04-24T05:15:46;13.00;21.80
148;DHT22;142;50.652;12.216;2023-04-24T05:18:13;13.00;21.80
148;DHT22;142;50.652;12.216;2023-04-24T05:20:41;13.00;21.60
148;DHT22;142;50.652;12.216;2023-04-24T05:23:09;13.00;21.40
148;DHT22;142;50.652;12.216;2023-04-24T05:25:39;13.00;21.40
148;DHT22;142;50.652;12.216;2023-04-24T05:28:07;13.10;21.30
148;DHT22;142;50.652;12.216;2023-04-24T05:30:34;13.10;21.20
148;DHT22;142;50.652;12.216;2023-04-24T05:33:02;13.20;21.10
148;DHT22;142;50.652;12.216;2023-04-24T05:35:29;13.20;20.80
148;DHT22;142;50.652;12.216;2023-04-24T05:37:56;13.20;21.00
148;DHT22;142;50.652;12.216;2023-04-24T05:40:23;13.30;20.80
148;DHT22;142;50.652;12.216;2023-04-24T05:42:52;13.40;20.80
148;DHT22;142;50.652;12.216;2023-04-24T05:45:20;13.30;20.70
148;DHT22;142;50.652;12.216;2023-04-24T05:47:48;13.40;20.70
148;DHT22;142;50.652;12.216;2023-04-24T05:50:17;13.40;20.60
148;DHT22;142;50.652;12.216;2023-04-24T05:52:44;13.40;20.70
148;DHT22;142;50.652;12.216;2023-04-24T05:55:11;13.40;20.50
148;DHT22;142;50.652;12.216;2023-04-24T05:57:39;13.40;20.30
148;DHT22;142;50.652;12.216;2023-04-24T06:00:11;13.40;20.30
148;DHT22;142;50.652;12.216;2023-04-24T06:02:39;13.40;20.10
148;DHT22;142;50.652;12.216;2023-04-24T06:05:07;13.40;19.80
148;DHT22;142;50.652;12.216;2023-04-24T06:07:35;13.30;19.60
148;DHT22;142;50.652;12.216;2023-04-24T06:10:02;13.30;19.70
148;DHT22;142;50.652;12.216;2023-04-24T06:12:29;13.30;19.70
148;DHT22;142;50.652;12.216;2023-04-24T06:14:56;13.40;19.80
148;DHT22;142;50.652;12.216;2023-04-24T06:17:25;13.40;19.60
148;DHT22;142;50.652;12.216;2023-04-24T06:19:51;13.40;19.80
148;DHT22;142;50.652;12.216;2023-04-24T06:22:19;13.50;19.80
148;DHT22;142;50.652;12.216;2023-04-24T06:24:46;13.60;19.70
148;DHT22;142;50.652;12.216;2023-04-24T06:27:14;13.60;19.60
148;DHT22;142;50.652;12.216;2023-04-24T06:29:41;13.60;19.40
148;DHT22;142;50.652;12.216;2023-04-24T06:32:08;13.70;19.40
148;DHT22;142;50.652;12.216;2023-04-24T06:34:36;13.90;19.60
148;DHT22;142;50.652;12.216;2023-04-24T06:37:05;14.00;19.10
148;DHT22;142;50.652;12.216;2023-04-24T06:39:33;14.10;19.20
148;DHT22;142;50.652;12.216;2023-04-24T06:42:00;14.20;18.80
148;DHT22;142;50.652;12.216;2023-04-24T06:44:27;14.20;18.50
148;DHT22;142;50.652;12.216;2023-04-24T06:46:55;14.30;18.50
148;DHT22;142;50.652;12.216;2023-04-24T06:49:22;14.40;18.40
148;DHT22;142;50.652;12.216;2023-04-24T06:51:51;14.50;18.40
148;DHT22;142;50.652;12.216;2023-04-24T06:54:18;14.60;18.20
148;DHT22;142;50.652;12.216;2023-04-24T06:56:45;14.50;17.90
148;DHT22;142;50.652;12.216;2023-04-24T06:59:14;14.30;17.80
148;DHT22;142;50.652;12.216;2023-04-24T07:01:41;14.30;18.00
148;DHT22;142;50.652;12.216;2023-04-24T07:04:08;14.30;17.90
148;DHT22;142;50.652;12.216;2023-04-24T07:06:37;14.40;18.10
148;DHT22;142;50.652;12.216;2023-04-24T07:09:06;14.40;17.90
148;DHT22;142;50.652;12.216;2023-04-24T07:11:34;14.40;17.90
148;DHT22;142;50.652;12.216;2023-04-24T07:14:02;14.50;18.00
148;DHT22;142;50.652;12.216;2023-04-24T07:16:29;14.70;17.80
148;DHT22;142;50.652;12.216;2023-04-24T07:18:57;14.80;17.80
148;DHT22;142;50.652;12.216;2023-04-24T07:21:24;14.90;17.20
148;DHT22;142;50.652;12.216;2023-04-24T07:23:51;14.80;17.50
148;DHT22;142;50.652;12.216;2023-04-24T07:26:20;14.80;17.20
148;DHT22;142;50.652;12.216;2023-04-24T07:28:47;14.90;17.40
148;DHT22;142;50.652;12.216;2023-04-24T07:31:14;15.00;17.70
148;DHT22;142;50.652;12.216;2023-04-24T07:33:42;15.10;17.30
148;DHT22;142;50.652;12.216;2023-04-24T07:36:09;15.10;17.40
148;DHT22;142;50.652;12.216;2023-04-24T07:38:41;15.20;17.20
148;DHT22;142;50.652;12.216;2023-04-24T07:41:08;15.20;17.30
148;DHT22;142;50.652;12.216;2023-04-24T07:43:36;15.30;17.70
148;DHT22;142;50.652;12.216;2023-04-24T07:46:03;15.20;17.20
148;DHT22;142;50.652;12.216;2023-04-24T07:48:30;15.40;17.60
148;DHT22;142;50.652;12.216;2023-04-24T07:50:58;15.50;17.50
148;DHT22;142;50.652;12.216;2023-04-24T07:53:25;15.70;20.20
148;DHT22;142;50.652;12.216;2023-04-24T07:55:52;15.60;20.30
148;DHT22;142;50.652;12.216;2023-04-24T07:58:20;15.70;20.70
148;DHT22;142;50.652;12.216;2023-04-24T08:00:49;15.80;20.80
148;DHT22;142;50.652;12.216;2023-04-24T08:03:16;15.70;21.40
148;DHT22;142;50.652;12.216;2023-04-24T08:05:45;15.80;20.80
148;DHT22;142;50.652;12.216;2023-04-24T08:08:15;15.80;21.10
148;DHT22;142;50.652;12.216;2023-04-24T08:10:42;15.70;22.50
148;DHT22;142;50.652;12.216;2023-04-24T08:13:10;15.60;24.40
148;DHT22;142;50.652;12.216;2023-04-24T08:15:37;15.70;26.40
148;DHT22;142;50.652;12.216;2023-04-24T08:18:05;15.60;25.70
148;DHT22;142;50.652;12.216;2023-04-24T08:20:32;15.70;25.50
148;DHT22;142;50.652;12.216;2023-04-24T08:23:00;15.60;26.50
148;DHT22;142;50.652;12.216;2023-04-24T08:25:27;15.40;26.20
148;DHT22;142;50.652;12.216;2023-04-24T08:27:54;15.40;26.30
148;DHT22;142;50.652;12.216;2023-04-24T08:30:22;15.30;27.80
148;DHT22;142;50.652;12.216;2023-04-24T08:32:49;15.40;28.10
148;DHT22;142;50.652;12.216;2023-04-24T08:35:17;15.60;28.50
148;DHT22;142;50.652;12.216;2023-04-24T08:37:45;15.60;28.60
148;DHT22;142;50.652;12.216;2023-04-24T08:40:13;15.70;29.30
148;DHT22;142;50.652;12.216;2023-04-24T08:42:41;15.50;44.40
148;DHT22;142;50.652;12.216;2023-04-24T08:45:10;15.30;54.70
148;DHT22;142;50.652;12.216;2023-04-24T08:47:38;15.30;54.60
148;DHT22;142;50.652;12.216;2023-04-24T08:50:07;15.30;54.60
148;DHT22;142;50.652;12.216;2023-04-24T08:52:38;15.40;53.90
148;DHT22;142;50.652;12.216;2023-04-24T08:55:10;15.50;54.50
148;DHT22;142;50.652;12.216;2023-04-24T08:57:38;15.60;55.50
148;DHT22;142;50.652;12.216;2023-04-24T09:00:07;15.50;55.80
148;DHT22;142;50.652;12.216;2023-04-24T09:02:40;15.60;55.30
148;DHT22;142;50.652;12.216;2023-04-24T09:05:09;15.80;56.90
148;DHT22;142;50.652;12.216;2023-04-24T09:07:39;15.80;57.90
148;DHT22;142;50.652;12.216;2023-04-24T09:10:08;15.90;59.40
148;DHT22;142;50.652;12.216;2023-04-24T09:12:36;16.00;60.10
148;DHT22;142;50.652;12.216;2023-04-24T09:15:04;16.10;73.30
148;DHT22;142;50.652;12.216;2023-04-24T09:17:33;15.80;74.90
148;DHT22;142;50.652;12.216;2023-04-24T09:20:01;15.70;74.90
148;DHT22;142;50.652;12.216;2023-04-24T09:22:29;15.70;75.40
148;DHT22;142;50.652;12.216;2023-04-24T09:25:02;15.60;75.90
148;DHT22;142;50.652;12.216;2023-04-24T09:27:31;15.50;77.00
148;DHT22;142;50.652;12.216;2023-04-24T09:29:59;15.60;76.70
148;DHT22;142;50.652;12.216;2023-04-24T09:32:26;15.50;80.60
148;DHT22;142;50.652;12.216;2023-04-24T09:35:12;15.60;80.90
148;DHT22;142;50.652;12.216;2023-04-24T09:37:40;15.80;81.00
148;DHT22;142;50.652;12.216;2023-04-24T09:40:14;16.00;80.70
148;DHT22;142;50.652;12.216;2023-04-24T09:42:51;16.20;83.90
148;DHT22;142;50.652;12.216;2023-04-24T09:45:18;16.20;83.10
148;DHT22;142;50.652;12.216;2023-04-24T09:47:45;16.10;83.00
148;DHT22;142;50.652;12.216;2023-04-24T09:50:14;16.30;83.30
148;DHT22;142;50.652;12.216;2023-04-24T09:52:45;16.30;82.80
148;DHT22;142;50.652;12.216;2023-04-24T09:55:18;16.40;83.40
148;DHT22;142;50.652;12.216;2023-04-24T09:57:52;16.70;82.80
148;DHT22;142;50.652;12.216;2023-04-24T10:00:24;16.60;82.30
148;DHT22;142;50.652;12.216;2023-04-24T10:02:56;16.70;82.20
148;DHT22;142;50.652;12.216;2023-04-24T10:05:26;16.90;81.30
148;DHT22;142;50.652;12.216;2023-04-24T10:07:57;16.80;80.90
148;DHT22;142;50.652;12.216;2023-04-24T10:10:26;17.00;80.20
148;DHT22;142;50.652;12.216;2023-04-24T10:12:53;16.90;78.90
148;DHT22;142;50.652;12.216;2023-04-24T10:15:22;16.80;80.40
148;DHT22;142;50.652;12.216;2023-04-24T10:17:49;17.00;78.70
148;DHT22;142;50.652;12.216;2023-04-24T10:20:20;16.80;78.00
148;DHT22;142;50.652;12.216;2023-04-24T10:22:49;16.60;78.80
148;DHT22;142;50.652;12.216;2023-04-24T10:25:19;16.70;78.80
148;DHT22;142;50.652;12.216;2023-04-24T10:27:49;16.80;79.20
148;DHT22;142;50.652;12.216;2023-04-24T10:30:18;16.70;78.50
148;DHT22;142;50.652;12.216;2023-04-24T10:32:45;16.70;78.80
148;DHT22;142;50.652;12.216;2023-04-24T10:35:13;16.40;79.30
148;DHT22;142;50.652;12.216;2023-04-24T10:37:44;16.50;79.50
148;DHT22;142;50.652;12.216;2023-04-24T10:40:18;16.50;79.40
148;DHT22;142;50.652;12.216;2023-04-24T10:42:49;16.50;78.90
148;DHT22;142;50.652;12.216;2023-04-24T10:45:19;16.70;77.90
148;DHT22;142;50.652;12.216;2023-04-24T10:48:01;16.80;75.30
148;DHT22;142;50.652;12.216;2023-04-24T10:50:29;16.80;74.80
148;DHT22;142;50.652;12.216;2023-04-24T10:53:06;16.90;75.60
148;DHT22;142;50.652;12.216;2023-04-24T10:55:45;16.70;75.20
148;DHT22;142;50.652;12.216;2023-04-24T10:58:14;16.70;76.10
148;DHT22;142;50.652;12.216;2023-04-24T11:00:43;16.40;76.10
148;DHT22;142;50.652;12.216;2023-04-24T11:03:30;16.50;77.20
148;DHT22;142;50.652;12.216;2023-04-24T11:06:02;16.60;76.60
148;DHT22;142;50.652;12.216;2023-04-24T11:08:31;16.80;74.60
148;DHT22;142;50.652;12.216;2023-04-24T11:11:00;16.80;74.10
148;DHT22;142;50.652;12.216;2023-04-24T11:14:02;16.70;73.90
148;DHT22;142;50.652;12.216;2023-04-24T11:16:31;16.50;73.50
148;DHT22;142;50.652;12.216;2023-04-24T11:19:04;16.30;74.80
148;DHT22;142;50.652;12.216;2023-04-24T11:21:38;16.10;75.80
148;DHT22;142;50.652;12.216;2023-04-24T11:24:32;16.20;75.30
148;DHT22;142;50.652;12.216;2023-04-24T11:27:11;16.20;76.20
148;DHT22;142;50.652;12.216;2023-04-24T11:29:43;16.60;76.20
148;DHT22;142;50.652;12.216;2023-04-24T11:32:24;16.70;75.30
148;DHT22;142;50.652;12.216;2023-04-24T11:34:53;16.60;74.40
148;DHT22;142;50.652;12.216;2023-04-24T11:37:22;17.00;74.20
148;DHT22;142;50.652;12.216;2023-04-24T11:39:52;16.90;72.30
148;DHT22;142;50.652;12.216;2023-04-24T11:42:20;16.80;73.40
148;DHT22;142;50.652;12.216;2023-04-24T11:44:51;16.60;73.30
148;DHT22;142;50.652;12.216;2023-04-24T11:47:18;16.30;74.80
148;DHT22;142;50.652;12.216;2023-04-24T11:49:46;16.20;75.30
148;DHT22;142;50.652;12.216;2023-04-24T11:52:15;16.10;75.80
148;DHT22;142;50.652;12.216;2023-04-24T11:54:48;16.10;76.80
148;DHT22;142;50.652;12.216;2023-04-24T11:57:16;16.40;77.20
148;DHT22;142;50.652;12.216;2023-04-24T11:59:43;17.00;75.70
148;DHT22;142;50.652;12.216;2023-04-24T12:02:22;17.20;75.00
148;DHT22;142;50.652;12.216;2023-04-24T12:04:49;17.30;74.60
148;DHT22;142;50.652;12.216;2023-04-24T12:07:16;17.50;73.30
148;DHT22;142;50.652;12.216;2023-04-24T12:09:45;17.40;72.50
148;DHT22;142;50.652;12.216;2023-04-24T12:12:13;17.30;70.40
148;DHT22;142;50.652;12.216;2023-04-24T12:14:45;17.10;70.80
148;DHT22;142;50.652;12.216;2023-04-24T12:17:14;16.80;71.20
148;DHT22;142;50.652;12.216;2023-04-24T12:19:46;16.70;72.30
148;DHT22;142;50.652;12.216;2023-04-24T12:22:14;16.70;72.90
148;DHT22;142;50.652;12.216;2023-04-24T12:25:05;16.80;72.90
148;DHT22;142;50.652;12.216;2023-04-24T12:27:32;16.60;73.90
148;DHT22;142;50.652;12.216;2023-04-24T12:30:02;16.30;74.70
148;DHT22;142;50.652;12.216;2023-04-24T12:32:29;16.20;75.60
148;DHT22;142;50.652;12.216;2023-04-24T12:34:58;16.30;74.80
148;DHT22;142;50.652;12.216;2023-04-24T12:37:26;16.10;75.50
148;DHT22;142;50.652;12.216;2023-04-24T12:40:04;16.30;76.10
148;DHT22;142;50.652;12.216;2023-04-24T12:42:32;16.30;76.10
148;DHT22;142;50.652;12.216;2023-04-24T12:45:05;16.10;76.80
148;DHT22;142;50.652;12.216;2023-04-24T12:47:34;16.30;76.90
148;DHT22;142;50.652;12.216;2023-04-24T12:50:04;16.50;75.80
148;DHT22;142;50.652;12.216;2023-04-24T12:52:32;16.30;75.20
148;DHT22;142;50.652;12.216;2023-04-24T12:54:59;16.30;75.40
148;DHT22;142;50.652;12.216;2023-04-24T12:57:29;16.30;73.70
148;DHT22;142;50.652;12.216;2023-04-24T12:59:57;16.50;73.30
148;DHT22;142;50.652;12.216;2023-04-24T13:02:26;17.00;72.30
148;DHT22;142;50.652;12.216;2023-04-24T13:04:54;17.10;70.50
148;DHT22;142;50.652;12.216;2023-04-24T13:07:23;17.30;68.90
148;DHT22;142;50.652;12.216;2023-04-24T13:09:51;17.20;69.90
148;DHT22;142;50.652;12.216;2023-04-24T13:12:19;17.30;70.20
148;DHT22;142;50.652;12.216;2023-04-24T13:14:46;17.30;68.30
148;DHT22;142;50.652;12.216;2023-04-24T13:17:14;17.20;69.00
148;DHT22;142;50.652;12.216;2023-04-24T13:19:43;17.10;69.50
148;DHT22;142;50.652;12.216;2023-04-24T13:22:11;17.00;69.10
148;DHT22;142;50.652;12.216;2023-04-24T13:24:40;16.90;69.20
148;DHT22;142;50.652;12.216;2023-04-24T13:27:08;17.10;69.20
148;DHT22;142;50.652;12.216;2023-04-24T13:29:36;17.30;69.80
148;DHT22;142;50.652;12.216;2023-04-24T13:32:03;17.40;68.20
148;DHT22;142;50.652;12.216;2023-04-24T13:34:30;17.30;68.60
148;DHT22;142;50.652;12.216;2023-04-24T13:37:00;17.20;70.30
148;DHT22;142;50.652;12.216;2023-04-24T13:39:27;17.10;71.00
148;DHT22;142;50.652;12.216;2023-04-24T13:41:56;17.20;71.50
148;DHT22;142;50.652;12.216;2023-04-24T13:44:23;17.50;71.40
148;DHT22;142;50.652;12.216;2023-04-24T13:46:52;17.30;69.50
148;DHT22;142;50.652;12.216;2023-04-24T13:49:20;16.80;71.10
148;DHT22;142;50.652;12.216;2023-04-24T13:51:52;16.70;72.50
148;DHT22;142;50.652;12.216;2023-04-24T13:54:20;16.40;72.20
148;DHT22;142;50.652;12.216;2023-04-24T13:56:48;16.30;72.50
148;DHT22;142;50.652;12.216;2023-04-24T13:59:17;16.30;73.50
148;DHT22;142;50.652;12.216;2023-04-24T14:01:46;16.50;73.00
148;DHT22;142;50.652;12.216;2023-04-24T14:04:13;16.90;72.50
148;DHT22;142;50.652;12.216;2023-04-24T14:06:41;17.30;70.80
148;DHT22;142;50.652;12.216;2023-04-24T14:09:08;17.10;70.40
148;DHT22;142;50.652;12.216;2023-04-24T14:11:35;17.10;69.60
148;DHT22;142;50.652;12.216;2023-04-24T14:14:04;16.80;69.70
148;DHT22;142;50.652;12.216;2023-04-24T14:16:33;16.60;71.30
148;DHT22;142;50.652;12.216;2023-04-24T14:19:00;16.30;71.00
148;DHT22;142;50.652;12.216;2023-04-24T14:21:28;16.30;72.20
148;DHT22;142;50.652;12.216;2023-04-24T14:23:55;16.40;72.50
148;DHT22;142;50.652;12.216;2023-04-24T14:26:22;16.60;72.30
148;DHT22;142;50.652;12.216;2023-04-24T14:28:50;16.40;73.00
148;DHT22;142;50.652;12.216;2023-04-24T14:31:18;16.40;74.20
148;DHT22;142;50.652;12.216;2023-04-24T14:33:47;16.50;74.20
148;DHT22;142;50.652;12.216;2023-04-24T14:36:14;16.40;73.20
148;DHT22;142;50.652;12.216;2023-04-24T14:38:41;16.40;73.80
148;DHT22;142;50.652;12.216;2023-04-24T14:41:08;16.80;73.60
148;DHT22;142;50.652;12.216;2023-04-24T14:43:37;16.80;71.80
148;DHT22;142;50.652;12.216;2023-04-24T14:46:04;16.60;73.10
148;DHT22;142;50.652;12.216;2023-04-24T14:48:31;16.30;72.80
148;DHT22;142;50.652;12.216;2023-04-24T14:51:00;16.10;73.00
148;DHT22;142;50.652;12.216;2023-04-24T14:53:27;16.20;73.30
148;DHT22;142;50.652;12.216;2023-04-24T14:55:55;16.10;73.30
148;DHT22;142;50.652;12.216;2023-04-24T14:58:22;15.70;74.00
148;DHT22;142;50.652;12.216;2023-04-24T15:00:50;15.60;75.50
148;DHT22;142;50.652;12.216;2023-04-24T15:03:19;15.50;75.80
148;DHT22;142;50.652;12.216;2023-04-24T15:05:47;15.50;76.10
148;DHT22;142;50.652;12.216;2023-04-24T15:08:16;15.40;77.20
148;DHT22;142;50.652;12.216;2023-04-24T15:10:43;15.30;77.30
148;DHT22;142;50.652;12.216;2023-04-24T15:13:11;15.20;78.10
148;DHT22;142;50.652;12.216;2023-04-24T15:15:38;15.20;79.30
148;DHT22;142;50.652;12.216;2023-04-24T15:18:07;14.90;81.20
148;DHT22;142;50.652;12.216;2023-04-24T15:20:34;14.60;83.40
148;DHT22;142;50.652;12.216;2023-04-24T15:23:01;14.50;85.50
148;DHT22;142;50.652;12.216;2023-04-24T15:25:30;14.50;85.70
148;DHT22;142;50.652;12.216;2023-04-24T15:27:58;14.70;85.50
148;DHT22;142;50.652;12.216;2023-04-24T15:30:25;15.10;84.30
148;DHT22;142;50.652;12.216;2023-04-24T15:32:53;15.50;83.80
148;DHT22;142;50.652;12.216;2023-04-24T15:35:20;15.70;83.00
148;DHT22;142;50.652;12.216;2023-04-24T15:37:47;15.70;82.60
148;DHT22;142;50.652;12.216;2023-04-24T15:40:14;15.70;83.00
148;DHT22;142;50.652;12.216;2023-04-24T15:42:43;15.40;82.80
148;DHT22;142;50.652;12.216;2023-04-24T15:45:10;15.00;86.80
148;DHT22;142;50.652;12.216;2023-04-24T15:47:38;14.40;88.60
148;DHT22;142;50.652;12.216;2023-04-24T15:50:06;14.20;89.00
148;DHT22;142;50.652;12.216;2023-04-24T15:52:35;14.40;89.00
148;DHT22;142;50.652;12.216;2023-04-24T15:55:03;14.50;89.20
148;DHT22;142;50.652;12.216;2023-04-24T15:57:30;14.60;89.60
148;DHT22;142;50.652;12.216;2023-04-24T15:59:59;14.70;89.40
148;DHT22;142;50.652;12.216;2023-04-24T16:02:27;14.60;87.90
148;DHT22;142;50.652;12.216;2023-04-24T16:04:54;14.50;88.60
148;DHT22;142;50.652;12.216;2023-04-24T16:07:21;14.60;88.80
148;DHT22;142;50.652;12.216;2023-04-24T16:09:49;14.90;88.40
148;DHT22;142;50.652;12.216;2023-04-24T16:12:16;15.10;87.70
148;DHT22;142;50.652;12.216;2023-04-24T16:14:44;15.40;86.90
148;DHT22;142;50.652;12.216;2023-04-24T16:17:12;15.20;86.30
148;DHT22;142;50.652;12.216;2023-04-24T16:19:40;15.10;87.30
148;DHT22;142;50.652;12.216;2023-04-24T16:22:07;15.00;87.80
148;DHT22;142;50.652;12.216;2023-04-24T16:24:36;14.90;87.90